To NAV CANADA Home Page Login to a new session Search on AWWS site Feedback and Comments Disclaimer Vers la page française équivalente Tips FAQ What's new on the site To the Forecasts and Observations / NOTAM section To "File a Flight Plan" website Publications and other links Update of the User's profile FIC Telephone Numbers My Weather Data Folder Route Weather Data Regional Weather Data Local Weather Data To the Forecasts and Observations / NOTAM section
Request Generated 08/31/2016 at 14:14:47 UTC . Weather information available at that time is displayed.

METAR/TAF

CALGARY/SPRINGBANK/AB    (show WxCam)

METAR CYBW 311400Z AUTO 35004KT 9SM CLR 09/09 A2998 RMK SLP154
DENSITY ALT 4100FT=
METAR CYBW 311300Z AUTO 32005KT 9SM CLR 10/10 A2998 RMK SLP150
DENSITY ALT 4100FT=
METAR CYBW 311200Z AUTO 00000KT 9SM CLR 11/10 A2998 RMK SLP145
DENSITY ALT 4200FT=

TAF CYBW 311138Z 3112/3124 VRB03KT P6SM FEW230
FM312100 14008KT P6SM FEW060 PROB30 3121/3124 VRB20G30KT 2SM TSRA
BKN060CB
RMK FCST BASED ON AUTO OBS. NXT FCST BY 311800Z=
Your time UTC time
Weather data provided by Environment Canada and NAV CANADA